< < Back
Terminal Aerodrome Forecast


Current Version              Previous Versions:   1  2  3  4  5  6  7  8  9  

Terminal Aerodrome Forecast

585
FTUS44 KHUN 060520
TAFHSV
TAF
KHSV 060520Z 0606/0706 33005KT P6SM SKC
     FM061500 33010KT P6SM SKC
     FM062000 34010KT P6SM SCT040
     FM070000 VRB03KT P6SM SKC=

Latest METAR

686
SAUS80 KWBC 060700
MTRHSV
METAR KHSV 060653Z AUTO 30005KT 10SM CLR 08/05 A2997 RMK AO2 SLP144
T00830050


USA.gov is the U.S. government's official web portal to all federal, state and local government web resources and services.